sensor_id;sensor_type;location;lat;lon;timestamp;P1;durP1;ratioP1;P2;durP2;ratioP2
4521;SDS011;2273;48.464;11.926;2023-05-10T00:02:24;13.20;;;9.37;;
4521;SDS011;2273;48.464;11.926;2023-05-10T00:04:50;11.43;;;8.53;;
4521;SDS011;2273;48.464;11.926;2023-05-10T00:07:15;12.37;;;7.80;;
4521;SDS011;2273;48.464;11.926;2023-05-10T00:09:42;12.40;;;9.90;;
4521;SDS011;2273;48.464;11.926;2023-05-10T00:12:08;11.50;;;9.40;;
4521;SDS011;2273;48.464;11.926;2023-05-10T00:14:34;14.50;;;8.90;;
4521;SDS011;2273;48.464;11.926;2023-05-10T00:16:59;9.97;;;8.10;;
4521;SDS011;2273;48.464;11.926;2023-05-10T00:19:25;11.90;;;8.00;;
4521;SDS011;2273;48.464;11.926;2023-05-10T00:21:50;8.23;;;5.97;;
4521;SDS011;2273;48.464;11.926;2023-05-10T00:24:15;10.33;;;6.03;;
4521;SDS011;2273;48.464;11.926;2023-05-10T00:26:41;5.63;;;4.27;;
4521;SDS011;2273;48.464;11.926;2023-05-10T00:29:07;4.00;;;3.27;;
4521;SDS011;2273;48.464;11.926;2023-05-10T00:31:33;6.13;;;3.23;;
4521;SDS011;2273;48.464;11.926;2023-05-10T00:33:58;3.67;;;2.80;;
4521;SDS011;2273;48.464;11.926;2023-05-10T00:36:24;4.20;;;3.07;;
4521;SDS011;2273;48.464;11.926;2023-05-10T00:38:49;3.87;;;3.03;;
4521;SDS011;2273;48.464;11.926;2023-05-10T00:41:15;4.80;;;2.40;;
4521;SDS011;2273;48.464;11.926;2023-05-10T00:43:41;3.80;;;2.53;;
4521;SDS011;2273;48.464;11.926;2023-05-10T00:46:06;5.40;;;2.63;;
4521;SDS011;2273;48.464;11.926;2023-05-10T00:48:32;4.47;;;2.30;;
4521;SDS011;2273;48.464;11.926;2023-05-10T00:50:58;2.90;;;2.00;;
4521;SDS011;2273;48.464;11.926;2023-05-10T00:53:23;3.30;;;2.30;;
4521;SDS011;2273;48.464;11.926;2023-05-10T00:55:49;3.93;;;2.50;;
4521;SDS011;2273;48.464;11.926;2023-05-10T00:58:16;3.30;;;2.60;;
4521;SDS011;2273;48.464;11.926;2023-05-10T01:00:42;4.27;;;2.70;;
4521;SDS011;2273;48.464;11.926;2023-05-10T01:03:09;4.03;;;2.80;;
4521;SDS011;2273;48.464;11.926;2023-05-10T01:05:35;4.40;;;2.47;;
4521;SDS011;2273;48.464;11.926;2023-05-10T01:08:00;3.37;;;2.57;;
4521;SDS011;2273;48.464;11.926;2023-05-10T01:10:28;3.20;;;2.40;;
4521;SDS011;2273;48.464;11.926;2023-05-10T01:12:54;5.23;;;3.27;;
4521;SDS011;2273;48.464;11.926;2023-05-10T01:15:20;3.57;;;2.80;;
4521;SDS011;2273;48.464;11.926;2023-05-10T01:17:45;4.13;;;2.70;;
4521;SDS011;2273;48.464;11.926;2023-05-10T01:20:12;5.03;;;3.07;;
4521;SDS011;2273;48.464;11.926;2023-05-10T01:23:04;7.40;;;3.13;;
4521;SDS011;2273;48.464;11.926;2023-05-10T01:28:42;3.73;;;2.70;;
4521;SDS011;2273;48.464;11.926;2023-05-10T01:31:35;4.10;;;3.10;;
4521;SDS011;2273;48.464;11.926;2023-05-10T01:34:27;7.50;;;2.73;;
4521;SDS011;2273;48.464;11.926;2023-05-10T01:36:58;5.07;;;3.23;;
4521;SDS011;2273;48.464;11.926;2023-05-10T01:39:33;5.10;;;3.47;;
4521;SDS011;2273;48.464;11.926;2023-05-10T01:47:40;7.10;;;3.10;;
4521;SDS011;2273;48.464;11.926;2023-05-10T01:50:14;4.30;;;2.67;;
4521;SDS011;2273;48.464;11.926;2023-05-10T01:52:42;3.80;;;2.70;;
4521;SDS011;2273;48.464;11.926;2023-05-10T01:55:13;5.50;;;3.00;;
4521;SDS011;2273;48.464;11.926;2023-05-10T01:57:40;7.10;;;3.20;;
4521;SDS011;2273;48.464;11.926;2023-05-10T02:00:08;3.93;;;2.60;;
4521;SDS011;2273;48.464;11.926;2023-05-10T02:02:42;4.93;;;3.00;;
4521;SDS011;2273;48.464;11.926;2023-05-10T02:05:12;4.50;;;3.30;;
4521;SDS011;2273;48.464;11.926;2023-05-10T02:07:38;3.70;;;3.03;;
4521;SDS011;2273;48.464;11.926;2023-05-10T02:10:06;4.83;;;2.63;;
4521;SDS011;2273;48.464;11.926;2023-05-10T02:12:36;7.63;;;3.50;;
4521;SDS011;2273;48.464;11.926;2023-05-10T02:15:05;6.07;;;3.17;;
4521;SDS011;2273;48.464;11.926;2023-05-10T02:17:32;3.97;;;3.13;;
4521;SDS011;2273;48.464;11.926;2023-05-10T02:19:58;6.03;;;2.93;;
4521;SDS011;2273;48.464;11.926;2023-05-10T02:22:25;6.03;;;3.53;;
4521;SDS011;2273;48.464;11.926;2023-05-10T02:24:51;3.63;;;2.87;;
4521;SDS011;2273;48.464;11.926;2023-05-10T02:27:17;6.10;;;3.70;;
4521;SDS011;2273;48.464;11.926;2023-05-10T02:29:44;4.40;;;3.30;;
4521;SDS011;2273;48.464;11.926;2023-05-10T02:32:10;5.33;;;3.20;;
4521;SDS011;2273;48.464;11.926;2023-05-10T02:34:36;6.30;;;2.97;;
4521;SDS011;2273;48.464;11.926;2023-05-10T02:37:02;3.70;;;2.90;;
4521;SDS011;2273;48.464;11.926;2023-05-10T02:39:28;4.37;;;2.90;;
4521;SDS011;2273;48.464;11.926;2023-05-10T02:41:55;4.17;;;3.43;;
4521;SDS011;2273;48.464;11.926;2023-05-10T02:44:22;5.83;;;3.20;;
4521;SDS011;2273;48.464;11.926;2023-05-10T02:46:47;4.87;;;3.10;;
4521;SDS011;2273;48.464;11.926;2023-05-10T02:49:13;6.63;;;4.37;;
4521;SDS011;2273;48.464;11.926;2023-05-10T02:51:40;4.47;;;3.10;;
4521;SDS011;2273;48.464;11.926;2023-05-10T02:54:12;7.43;;;3.37;;
4521;SDS011;2273;48.464;11.926;2023-05-10T02:56:42;3.70;;;3.13;;
4521;SDS011;2273;48.464;11.926;2023-05-10T02:59:10;5.40;;;2.97;;
4521;SDS011;2273;48.464;11.926;2023-05-10T03:01:36;3.80;;;3.17;;
4521;SDS011;2273;48.464;11.926;2023-05-10T03:04:01;7.43;;;3.40;;
4521;SDS011;2273;48.464;11.926;2023-05-10T03:06:26;3.97;;;3.00;;
4521;SDS011;2273;48.464;11.926;2023-05-10T03:08:53;5.27;;;4.03;;
4521;SDS011;2273;48.464;11.926;2023-05-10T03:14:04;4.40;;;2.80;;
4521;SDS011;2273;48.464;11.926;2023-05-10T03:16:42;7.13;;;2.80;;
4521;SDS011;2273;48.464;11.926;2023-05-10T03:21:51;3.20;;;2.40;;
4521;SDS011;2273;48.464;11.926;2023-05-10T03:24:19;3.40;;;2.20;;
4521;SDS011;2273;48.464;11.926;2023-05-10T03:26:47;3.53;;;2.50;;
4521;SDS011;2273;48.464;11.926;2023-05-10T03:29:16;4.40;;;3.03;;
4521;SDS011;2273;48.464;11.926;2023-05-10T03:31:42;3.13;;;2.43;;
4521;SDS011;2273;48.464;11.926;2023-05-10T03:34:08;3.30;;;2.40;;
4521;SDS011;2273;48.464;11.926;2023-05-10T03:36:33;4.07;;;2.40;;
4521;SDS011;2273;48.464;11.926;2023-05-10T03:38:58;4.30;;;2.27;;
4521;SDS011;2273;48.464;11.926;2023-05-10T03:41:25;4.70;;;2.40;;
4521;SDS011;2273;48.464;11.926;2023-05-10T03:43:50;3.60;;;2.53;;
4521;SDS011;2273;48.464;11.926;2023-05-10T03:46:16;7.10;;;3.10;;
4521;SDS011;2273;48.464;11.926;2023-05-10T03:48:42;3.93;;;2.50;;
4521;SDS011;2273;48.464;11.926;2023-05-10T03:51:07;3.87;;;2.60;;
4521;SDS011;2273;48.464;11.926;2023-05-10T03:53:33;4.40;;;2.43;;
4521;SDS011;2273;48.464;11.926;2023-05-10T03:55:58;3.30;;;2.40;;
4521;SDS011;2273;48.464;11.926;2023-05-10T03:58:23;8.23;;;2.07;;
4521;SDS011;2273;48.464;11.926;2023-05-10T04:00:50;3.40;;;2.20;;
4521;SDS011;2273;48.464;11.926;2023-05-10T04:03:16;3.90;;;2.23;;
4521;SDS011;2273;48.464;11.926;2023-05-10T04:05:42;3.37;;;2.37;;
4521;SDS011;2273;48.464;11.926;2023-05-10T04:08:07;3.47;;;2.07;;
4521;SDS011;2273;48.464;11.926;2023-05-10T04:10:33;3.90;;;2.60;;
4521;SDS011;2273;48.464;11.926;2023-05-10T04:12:58;2.90;;;2.30;;
4521;SDS011;2273;48.464;11.926;2023-05-10T04:15:23;4.43;;;2.63;;
4521;SDS011;2273;48.464;11.926;2023-05-10T04:17:49;3.80;;;2.30;;
4521;SDS011;2273;48.464;11.926;2023-05-10T04:20:15;4.20;;;2.40;;
4521;SDS011;2273;48.464;11.926;2023-05-10T04:22:40;8.97;;;3.97;;
4521;SDS011;2273;48.464;11.926;2023-05-10T04:25:06;6.33;;;2.97;;
4521;SDS011;2273;48.464;11.926;2023-05-10T04:27:32;3.67;;;2.60;;
4521;SDS011;2273;48.464;11.926;2023-05-10T04:29:57;4.40;;;2.27;;
4521;SDS011;2273;48.464;11.926;2023-05-10T04:32:23;3.00;;;2.50;;
4521;SDS011;2273;48.464;11.926;2023-05-10T04:34:48;5.07;;;2.60;;
4521;SDS011;2273;48.464;11.926;2023-05-10T04:37:14;3.00;;;2.40;;
4521;SDS011;2273;48.464;11.926;2023-05-10T04:39:39;11.90;;;2.50;;
4521;SDS011;2273;48.464;11.926;2023-05-10T04:42:05;2.93;;;2.23;;
4521;SDS011;2273;48.464;11.926;2023-05-10T04:44:31;6.43;;;2.40;;
4521;SDS011;2273;48.464;11.926;2023-05-10T04:46:57;7.03;;;2.70;;
4521;SDS011;2273;48.464;11.926;2023-05-10T04:49:22;3.03;;;2.20;;
4521;SDS011;2273;48.464;11.926;2023-05-10T04:51:47;3.17;;;2.37;;
4521;SDS011;2273;48.464;11.926;2023-05-10T04:54:13;4.30;;;2.40;;
4521;SDS011;2273;48.464;11.926;2023-05-10T04:56:38;3.90;;;2.43;;
4521;SDS011;2273;48.464;11.926;2023-05-10T04:59:04;4.70;;;2.90;;
4521;SDS011;2273;48.464;11.926;2023-05-10T05:01:29;3.83;;;2.77;;
4521;SDS011;2273;48.464;11.926;2023-05-10T05:03:55;3.60;;;2.87;;
4521;SDS011;2273;48.464;11.926;2023-05-10T05:06:20;3.50;;;2.17;;
4521;SDS011;2273;48.464;11.926;2023-05-10T05:08:46;4.40;;;2.50;;
4521;SDS011;2273;48.464;11.926;2023-05-10T05:11:11;5.47;;;3.07;;
4521;SDS011;2273;48.464;11.926;2023-05-10T05:13:37;4.50;;;2.67;;
4521;SDS011;2273;48.464;11.926;2023-05-10T05:16:02;3.00;;;2.40;;
4521;SDS011;2273;48.464;11.926;2023-05-10T05:18:28;3.10;;;2.43;;
4521;SDS011;2273;48.464;11.926;2023-05-10T05:20:53;3.77;;;2.67;;
4521;SDS011;2273;48.464;11.926;2023-05-10T05:23:19;3.83;;;2.20;;
4521;SDS011;2273;48.464;11.926;2023-05-10T05:25:45;4.00;;;2.40;;
4521;SDS011;2273;48.464;11.926;2023-05-10T05:28:11;2.97;;;2.33;;
4521;SDS011;2273;48.464;11.926;2023-05-10T05:30:37;3.23;;;2.00;;
4521;SDS011;2273;48.464;11.926;2023-05-10T05:33:02;4.50;;;1.40;;
4521;SDS011;2273;48.464;11.926;2023-05-10T05:35:27;1.83;;;1.13;;
4521;SDS011;2273;48.464;11.926;2023-05-10T05:37:53;2.50;;;1.40;;
4521;SDS011;2273;48.464;11.926;2023-05-10T05:40:18;2.07;;;1.30;;
4521;SDS011;2273;48.464;11.926;2023-05-10T05:42:45;2.70;;;1.87;;
4521;SDS011;2273;48.464;11.926;2023-05-10T05:45:10;2.57;;;1.67;;
4521;SDS011;2273;48.464;11.926;2023-05-10T05:47:38;2.30;;;1.77;;
4521;SDS011;2273;48.464;11.926;2023-05-10T05:50:04;4.23;;;1.60;;
4521;SDS011;2273;48.464;11.926;2023-05-10T05:52:30;3.37;;;2.20;;
4521;SDS011;2273;48.464;11.926;2023-05-10T05:54:56;3.10;;;2.27;;
4521;SDS011;2273;48.464;11.926;2023-05-10T05:57:21;2.20;;;1.50;;
4521;SDS011;2273;48.464;11.926;2023-05-10T05:59:47;3.00;;;1.97;;
4521;SDS011;2273;48.464;11.926;2023-05-10T06:02:12;2.60;;;1.63;;
4521;SDS011;2273;48.464;11.926;2023-05-10T06:04:37;2.17;;;1.33;;
4521;SDS011;2273;48.464;11.926;2023-05-10T06:07:03;3.07;;;1.60;;
4521;SDS011;2273;48.464;11.926;2023-05-10T06:09:28;2.03;;;1.40;;
4521;SDS011;2273;48.464;11.926;2023-05-10T06:11:54;2.10;;;1.40;;
4521;SDS011;2273;48.464;11.926;2023-05-10T06:14:20;2.67;;;1.47;;
4521;SDS011;2273;48.464;11.926;2023-05-10T06:16:45;3.23;;;1.50;;
4521;SDS011;2273;48.464;11.926;2023-05-10T06:19:10;2.30;;;1.70;;
4521;SDS011;2273;48.464;11.926;2023-05-10T06:21:36;7.73;;;1.60;;
4521;SDS011;2273;48.464;11.926;2023-05-10T06:24:01;6.40;;;2.30;;
4521;SDS011;2273;48.464;11.926;2023-05-10T06:26:27;2.30;;;1.60;;
4521;SDS011;2273;48.464;11.926;2023-05-10T06:28:53;6.47;;;1.60;;
4521;SDS011;2273;48.464;11.926;2023-05-10T06:31:18;10.63;;;2.03;;
4521;SDS011;2273;48.464;11.926;2023-05-10T06:33:44;3.03;;;1.70;;
4521;SDS011;2273;48.464;11.926;2023-05-10T06:36:09;5.33;;;1.93;;
4521;SDS011;2273;48.464;11.926;2023-05-10T06:38:35;2.80;;;1.50;;
4521;SDS011;2273;48.464;11.926;2023-05-10T06:41:00;3.17;;;2.10;;
4521;SDS011;2273;48.464;11.926;2023-05-10T06:43:25;4.10;;;2.13;;
4521;SDS011;2273;48.464;11.926;2023-05-10T06:45:53;3.53;;;2.30;;
4521;SDS011;2273;48.464;11.926;2023-05-10T06:48:18;2.80;;;1.50;;
4521;SDS011;2273;48.464;11.926;2023-05-10T06:50:44;2.80;;;2.27;;
4521;SDS011;2273;48.464;11.926;2023-05-10T06:53:09;3.90;;;1.70;;
4521;SDS011;2273;48.464;11.926;2023-05-10T06:55:35;3.80;;;2.00;;
4521;SDS011;2273;48.464;11.926;2023-05-10T06:58:00;2.93;;;2.03;;
4521;SDS011;2273;48.464;11.926;2023-05-10T07:00:27;2.47;;;1.80;;
4521;SDS011;2273;48.464;11.926;2023-05-10T07:02:52;6.20;;;2.10;;
4521;SDS011;2273;48.464;11.926;2023-05-10T07:05:17;2.60;;;1.90;;
4521;SDS011;2273;48.464;11.926;2023-05-10T07:07:43;5.53;;;2.07;;
4521;SDS011;2273;48.464;11.926;2023-05-10T07:10:09;2.90;;;2.07;;
4521;SDS011;2273;48.464;11.926;2023-05-10T07:12:34;4.10;;;1.80;;
4521;SDS011;2273;48.464;11.926;2023-05-10T07:15:00;3.07;;;1.97;;
4521;SDS011;2273;48.464;11.926;2023-05-10T07:17:25;2.87;;;2.13;;
4521;SDS011;2273;48.464;11.926;2023-05-10T07:19:51;2.60;;;1.67;;
4521;SDS011;2273;48.464;11.926;2023-05-10T07:22:16;2.63;;;2.00;;
4521;SDS011;2273;48.464;11.926;2023-05-10T07:24:42;4.57;;;1.97;;
4521;SDS011;2273;48.464;11.926;2023-05-10T07:27:08;2.40;;;1.70;;
4521;SDS011;2273;48.464;11.926;2023-05-10T07:29:34;3.70;;;2.07;;
4521;SDS011;2273;48.464;11.926;2023-05-10T07:31:59;10.23;;;1.90;;
4521;SDS011;2273;48.464;11.926;2023-05-10T07:34:25;3.03;;;2.00;;
4521;SDS011;2273;48.464;11.926;2023-05-10T07:36:51;6.53;;;1.97;;
4521;SDS011;2273;48.464;11.926;2023-05-10T07:39:16;2.73;;;1.90;;
4521;SDS011;2273;48.464;11.926;2023-05-10T07:41:42;4.30;;;1.90;;
4521;SDS011;2273;48.464;11.926;2023-05-10T07:44:07;4.10;;;1.90;;
4521;SDS011;2273;48.464;11.926;2023-05-10T07:46:33;3.03;;;2.23;;
4521;SDS011;2273;48.464;11.926;2023-05-10T07:48:58;3.20;;;2.60;;
4521;SDS011;2273;48.464;11.926;2023-05-10T07:51:23;6.70;;;2.10;;
4521;SDS011;2273;48.464;11.926;2023-05-10T07:53:49;4.57;;;2.20;;
4521;SDS011;2273;48.464;11.926;2023-05-10T07:56:28;2.60;;;2.17;;
4521;SDS011;2273;48.464;11.926;2023-05-10T07:58:55;5.83;;;2.30;;
4521;SDS011;2273;48.464;11.926;2023-05-10T08:01:21;3.13;;;2.10;;
4521;SDS011;2273;48.464;11.926;2023-05-10T08:03:47;3.23;;;2.33;;
4521;SDS011;2273;48.464;11.926;2023-05-10T08:06:13;3.27;;;2.30;;
4521;SDS011;2273;48.464;11.926;2023-05-10T08:08:40;3.03;;;2.13;;
4521;SDS011;2273;48.464;11.926;2023-05-10T08:11:05;3.23;;;2.00;;
4521;SDS011;2273;48.464;11.926;2023-05-10T08:13:31;4.63;;;2.30;;
4521;SDS011;2273;48.464;11.926;2023-05-10T08:15:56;4.77;;;2.03;;
4521;SDS011;2273;48.464;11.926;2023-05-10T08:18:22;4.57;;;2.30;;
4521;SDS011;2273;48.464;11.926;2023-05-10T08:20:47;6.40;;;2.40;;
4521;SDS011;2273;48.464;11.926;2023-05-10T08:23:13;5.77;;;2.30;;
4521;SDS011;2273;48.464;11.926;2023-05-10T08:25:38;5.83;;;2.23;;
4521;SDS011;2273;48.464;11.926;2023-05-10T08:28:04;2.87;;;2.43;;
4521;SDS011;2273;48.464;11.926;2023-05-10T08:30:29;3.40;;;2.60;;
4521;SDS011;2273;48.464;11.926;2023-05-10T08:32:55;3.07;;;2.43;;
4521;SDS011;2273;48.464;11.926;2023-05-10T08:35:20;3.13;;;2.10;;
4521;SDS011;2273;48.464;11.926;2023-05-10T08:37:46;3.47;;;1.90;;
4521;SDS011;2273;48.464;11.926;2023-05-10T08:40:11;2.70;;;2.27;;
4521;SDS011;2273;48.464;11.926;2023-05-10T08:42:39;2.60;;;2.00;;
4521;SDS011;2273;48.464;11.926;2023-05-10T08:45:05;3.70;;;2.40;;
4521;SDS011;2273;48.464;11.926;2023-05-10T08:47:32;8.80;;;2.30;;
4521;SDS011;2273;48.464;11.926;2023-05-10T08:49:58;3.27;;;2.23;;
4521;SDS011;2273;48.464;11.926;2023-05-10T08:52:25;5.33;;;2.40;;
4521;SDS011;2273;48.464;11.926;2023-05-10T08:54:51;4.03;;;2.77;;
4521;SDS011;2273;48.464;11.926;2023-05-10T08:57:17;5.00;;;1.77;;
4521;SDS011;2273;48.464;11.926;2023-05-10T08:59:44;2.60;;;1.70;;
4521;SDS011;2273;48.464;11.926;2023-05-10T09:02:09;6.10;;;1.87;;
4521;SDS011;2273;48.464;11.926;2023-05-10T09:04:36;2.93;;;1.60;;
4521;SDS011;2273;48.464;11.926;2023-05-10T09:07:02;6.63;;;1.70;;
4521;SDS011;2273;48.464;11.926;2023-05-10T09:09:27;4.47;;;1.90;;
4521;SDS011;2273;48.464;11.926;2023-05-10T09:11:53;4.10;;;2.20;;
4521;SDS011;2273;48.464;11.926;2023-05-10T09:14:19;5.73;;;1.90;;
4521;SDS011;2273;48.464;11.926;2023-05-10T09:16:44;3.27;;;2.00;;
4521;SDS011;2273;48.464;11.926;2023-05-10T09:19:10;2.30;;;1.60;;
4521;SDS011;2273;48.464;11.926;2023-05-10T09:21:36;2.47;;;1.80;;
4521;SDS011;2273;48.464;11.926;2023-05-10T09:24:06;2.55;;;1.80;;
4521;SDS011;2273;48.464;11.926;2023-05-10T09:26:32;2.20;;;1.57;;
4521;SDS011;2273;48.464;11.926;2023-05-10T09:28:58;3.17;;;1.97;;
4521;SDS011;2273;48.464;11.926;2023-05-10T09:31:24;3.67;;;1.60;;
4521;SDS011;2273;48.464;11.926;2023-05-10T09:33:50;2.00;;;1.60;;
4521;SDS011;2273;48.464;11.926;2023-05-10T09:36:17;2.20;;;1.57;;
4521;SDS011;2273;48.464;11.926;2023-05-10T09:38:49;5.50;;;1.70;;
4521;SDS011;2273;48.464;11.926;2023-05-10T09:41:19;4.53;;;1.80;;
4521;SDS011;2273;48.464;11.926;2023-05-10T09:43:46;2.57;;;1.87;;
4521;SDS011;2273;48.464;11.926;2023-05-10T09:46:11;4.03;;;1.43;;
4521;SDS011;2273;48.464;11.926;2023-05-10T09:48:45;2.73;;;1.53;;
4521;SDS011;2273;48.464;11.926;2023-05-10T09:51:23;2.67;;;1.50;;
4521;SDS011;2273;48.464;11.926;2023-05-10T09:56:35;2.50;;;1.77;;
4521;SDS011;2273;48.464;11.926;2023-05-10T09:59:04;4.13;;;1.57;;
4521;SDS011;2273;48.464;11.926;2023-05-10T10:01:30;2.80;;;1.53;;
4521;SDS011;2273;48.464;11.926;2023-05-10T10:03:56;2.80;;;1.47;;
4521;SDS011;2273;48.464;11.926;2023-05-10T10:06:23;3.60;;;1.73;;
4521;SDS011;2273;48.464;11.926;2023-05-10T10:08:49;4.97;;;1.97;;
4521;SDS011;2273;48.464;11.926;2023-05-10T10:11:15;5.73;;;1.80;;
4521;SDS011;2273;48.464;11.926;2023-05-10T10:13:41;4.67;;;2.77;;
4521;SDS011;2273;48.464;11.926;2023-05-10T10:16:06;2.70;;;1.77;;
4521;SDS011;2273;48.464;11.926;2023-05-10T10:18:33;3.67;;;2.00;;
4521;SDS011;2273;48.464;11.926;2023-05-10T10:20:59;3.13;;;1.90;;
4521;SDS011;2273;48.464;11.926;2023-05-10T10:23:24;5.77;;;2.20;;
4521;SDS011;2273;48.464;11.926;2023-05-10T10:25:50;3.80;;;1.80;;
4521;SDS011;2273;48.464;11.926;2023-05-10T10:31:25;15.83;;;2.60;;
4521;SDS011;2273;48.464;11.926;2023-05-10T10:34:00;2.80;;;1.93;;
4521;SDS011;2273;48.464;11.926;2023-05-10T10:36:32;4.37;;;2.13;;
4521;SDS011;2273;48.464;11.926;2023-05-10T10:39:07;6.50;;;2.50;;
4521;SDS011;2273;48.464;11.926;2023-05-10T10:41:38;3.20;;;1.93;;
4521;SDS011;2273;48.464;11.926;2023-05-10T10:46:58;7.50;;;2.07;;
4521;SDS011;2273;48.464;11.926;2023-05-10T10:49:30;3.67;;;2.07;;
4521;SDS011;2273;48.464;11.926;2023-05-10T10:52:20;3.03;;;1.80;;
4521;SDS011;2273;48.464;11.926;2023-05-10T11:00:17;2.67;;;1.57;;
4521;SDS011;2273;48.464;11.926;2023-05-10T11:07:58;2.10;;;1.30;;
4521;SDS011;2273;48.464;11.926;2023-05-10T11:10:25;2.80;;;1.50;;
4521;SDS011;2273;48.464;11.926;2023-05-10T11:12:52;3.07;;;1.57;;
4521;SDS011;2273;48.464;11.926;2023-05-10T11:18:00;4.87;;;1.60;;
4521;SDS011;2273;48.464;11.926;2023-05-10T11:20:49;2.83;;;1.40;;
4521;SDS011;2273;48.464;11.926;2023-05-10T11:23:23;5.10;;;2.27;;
4521;SDS011;2273;48.464;11.926;2023-05-10T11:25:49;2.20;;;1.60;;
4521;SDS011;2273;48.464;11.926;2023-05-10T11:28:16;24.67;;;1.90;;
4521;SDS011;2273;48.464;11.926;2023-05-10T11:30:43;2.60;;;1.60;;
4521;SDS011;2273;48.464;11.926;2023-05-10T11:33:09;5.43;;;1.70;;
4521;SDS011;2273;48.464;11.926;2023-05-10T11:35:38;3.07;;;1.50;;
4521;SDS011;2273;48.464;11.926;2023-05-10T11:38:07;2.50;;;1.43;;
4521;SDS011;2273;48.464;11.926;2023-05-10T11:40:34;3.17;;;1.40;;
4521;SDS011;2273;48.464;11.926;2023-05-10T11:43:00;3.60;;;1.60;;
4521;SDS011;2273;48.464;11.926;2023-05-10T11:45:26;2.30;;;1.40;;
4521;SDS011;2273;48.464;11.926;2023-05-10T11:47:53;3.70;;;1.83;;
4521;SDS011;2273;48.464;11.926;2023-05-10T11:50:18;4.97;;;1.90;;
4521;SDS011;2273;48.464;11.926;2023-05-10T11:52:44;3.70;;;1.70;;
4521;SDS011;2273;48.464;11.926;2023-05-10T11:55:09;3.63;;;1.90;;
4521;SDS011;2273;48.464;11.926;2023-05-10T11:57:35;2.70;;;1.70;;
4521;SDS011;2273;48.464;11.926;2023-05-10T12:00:03;6.80;;;2.13;;
4521;SDS011;2273;48.464;11.926;2023-05-10T12:02:32;6.20;;;2.30;;
4521;SDS011;2273;48.464;11.926;2023-05-10T12:04:58;3.40;;;1.77;;
4521;SDS011;2273;48.464;11.926;2023-05-10T12:07:25;3.37;;;1.90;;
4521;SDS011;2273;48.464;11.926;2023-05-10T12:10:07;2.07;;;1.50;;
4521;SDS011;2273;48.464;11.926;2023-05-10T12:12:39;3.57;;;2.13;;
4521;SDS011;2273;48.464;11.926;2023-05-10T12:15:12;4.33;;;2.00;;
4521;SDS011;2273;48.464;11.926;2023-05-10T12:17:43;3.90;;;1.70;;
4521;SDS011;2273;48.464;11.926;2023-05-10T12:20:19;5.80;;;2.17;;
4521;SDS011;2273;48.464;11.926;2023-05-10T12:22:49;5.00;;;2.37;;
4521;SDS011;2273;48.464;11.926;2023-05-10T12:25:17;3.70;;;1.77;;
4521;SDS011;2273;48.464;11.926;2023-05-10T12:27:53;2.97;;;1.90;;
4521;SDS011;2273;48.464;11.926;2023-05-10T12:30:20;6.53;;;2.10;;
4521;SDS011;2273;48.464;11.926;2023-05-10T12:32:46;3.23;;;2.00;;
4521;SDS011;2273;48.464;11.926;2023-05-10T12:35:11;3.80;;;2.07;;
4521;SDS011;2273;48.464;11.926;2023-05-10T12:37:37;4.77;;;2.43;;
4521;SDS011;2273;48.464;11.926;2023-05-10T12:40:07;4.80;;;2.13;;
4521;SDS011;2273;48.464;11.926;2023-05-10T12:42:34;5.60;;;2.30;;
4521;SDS011;2273;48.464;11.926;2023-05-10T12:45:00;3.10;;;2.20;;
4521;SDS011;2273;48.464;11.926;2023-05-10T12:47:27;4.13;;;2.00;;
4521;SDS011;2273;48.464;11.926;2023-05-10T12:49:52;3.87;;;2.23;;
4521;SDS011;2273;48.464;11.926;2023-05-10T12:52:17;4.10;;;2.70;;
4521;SDS011;2273;48.464;11.926;2023-05-10T12:54:43;6.83;;;2.87;;
4521;SDS011;2273;48.464;11.926;2023-05-10T12:57:08;5.93;;;2.60;;
4521;SDS011;2273;48.464;11.926;2023-05-10T12:59:34;5.87;;;3.83;;
4521;SDS011;2273;48.464;11.926;2023-05-10T13:01:59;5.70;;;3.53;;
4521;SDS011;2273;48.464;11.926;2023-05-10T13:04:25;6.23;;;3.10;;
4521;SDS011;2273;48.464;11.926;2023-05-10T13:06:50;4.90;;;2.90;;
4521;SDS011;2273;48.464;11.926;2023-05-10T13:09:16;5.67;;;2.20;;
4521;SDS011;2273;48.464;11.926;2023-05-10T13:11:41;4.23;;;2.10;;
4521;SDS011;2273;48.464;11.926;2023-05-10T13:14:06;6.43;;;3.20;;
4521;SDS011;2273;48.464;11.926;2023-05-10T13:16:32;3.60;;;2.03;;
4521;SDS011;2273;48.464;11.926;2023-05-10T13:18:57;2.70;;;1.97;;
4521;SDS011;2273;48.464;11.926;2023-05-10T13:21:23;7.07;;;3.23;;
4521;SDS011;2273;48.464;11.926;2023-05-10T13:23:50;6.83;;;3.00;;
4521;SDS011;2273;48.464;11.926;2023-05-10T13:26:15;10.40;;;4.00;;
4521;SDS011;2273;48.464;11.926;2023-05-10T13:28:41;4.70;;;2.33;;
4521;SDS011;2273;48.464;11.926;2023-05-10T13:31:06;4.60;;;2.03;;
4521;SDS011;2273;48.464;11.926;2023-05-10T13:33:32;5.40;;;2.10;;
4521;SDS011;2273;48.464;11.926;2023-05-10T13:35:57;4.43;;;1.70;;
4521;SDS011;2273;48.464;11.926;2023-05-10T13:38:23;6.03;;;1.67;;
4521;SDS011;2273;48.464;11.926;2023-05-10T13:40:48;3.07;;;1.77;;
4521;SDS011;2273;48.464;11.926;2023-05-10T13:43:17;2.40;;;1.40;;
4521;SDS011;2273;48.464;11.926;2023-05-10T13:45:43;3.60;;;1.93;;
4521;SDS011;2273;48.464;11.926;2023-05-10T13:48:08;2.90;;;1.40;;
4521;SDS011;2273;48.464;11.926;2023-05-10T13:50:34;2.93;;;1.93;;
4521;SDS011;2273;48.464;11.926;2023-05-10T13:52:59;5.13;;;2.20;;
4521;SDS011;2273;48.464;11.926;2023-05-10T13:55:25;7.30;;;2.47;;
4521;SDS011;2273;48.464;11.926;2023-05-10T13:57:50;2.37;;;1.87;;
4521;SDS011;2273;48.464;11.926;2023-05-10T14:00:16;9.03;;;1.60;;
4521;SDS011;2273;48.464;11.926;2023-05-10T14:02:41;4.73;;;2.10;;
4521;SDS011;2273;48.464;11.926;2023-05-10T14:05:07;5.10;;;2.50;;
4521;SDS011;2273;48.464;11.926;2023-05-10T14:07:32;5.53;;;1.90;;
4521;SDS011;2273;48.464;11.926;2023-05-10T14:09:58;9.03;;;2.20;;
4521;SDS011;2273;48.464;11.926;2023-05-10T14:12:23;3.70;;;1.80;;
4521;SDS011;2273;48.464;11.926;2023-05-10T14:14:49;3.70;;;1.97;;
4521;SDS011;2273;48.464;11.926;2023-05-10T14:17:14;4.03;;;2.00;;
4521;SDS011;2273;48.464;11.926;2023-05-10T14:19:40;2.80;;;2.10;;
4521;SDS011;2273;48.464;11.926;2023-05-10T14:22:05;5.10;;;2.50;;
4521;SDS011;2273;48.464;11.926;2023-05-10T14:24:31;3.47;;;2.40;;
4521;SDS011;2273;48.464;11.926;2023-05-10T14:26:56;4.77;;;2.33;;
4521;SDS011;2273;48.464;11.926;2023-05-10T14:29:22;4.30;;;2.80;;
4521;SDS011;2273;48.464;11.926;2023-05-10T14:31:47;5.20;;;2.97;;
4521;SDS011;2273;48.464;11.926;2023-05-10T14:34:13;6.73;;;2.73;;
4521;SDS011;2273;48.464;11.926;2023-05-10T14:36:38;7.20;;;2.80;;
4521;SDS011;2273;48.464;11.926;2023-05-10T14:39:04;8.00;;;2.40;;
4521;SDS011;2273;48.464;11.926;2023-05-10T14:41:29;6.30;;;3.20;;
4521;SDS011;2273;48.464;11.926;2023-05-10T14:43:56;4.13;;;2.50;;
4521;SDS011;2273;48.464;11.926;2023-05-10T14:46:21;4.30;;;2.73;;
4521;SDS011;2273;48.464;11.926;2023-05-10T14:48:46;4.50;;;2.80;;
4521;SDS011;2273;48.464;11.926;2023-05-10T14:51:12;3.73;;;2.33;;
4521;SDS011;2273;48.464;11.926;2023-05-10T14:53:37;4.43;;;2.57;;
4521;SDS011;2273;48.464;11.926;2023-05-10T14:56:02;7.23;;;3.47;;
4521;SDS011;2273;48.464;11.926;2023-05-10T14:58:28;3.60;;;2.43;;
4521;SDS011;2273;48.464;11.926;2023-05-10T15:00:53;7.83;;;2.50;;
4521;SDS011;2273;48.464;11.926;2023-05-10T15:03:19;5.27;;;3.30;;
4521;SDS011;2273;48.464;11.926;2023-05-10T15:05:44;4.33;;;2.80;;
4521;SDS011;2273;48.464;11.926;2023-05-10T15:08:10;3.53;;;2.70;;
4521;SDS011;2273;48.464;11.926;2023-05-10T15:10:37;4.63;;;3.00;;
4521;SDS011;2273;48.464;11.926;2023-05-10T15:13:03;8.27;;;2.70;;
4521;SDS011;2273;48.464;11.926;2023-05-10T15:15:29;3.20;;;2.20;;
4521;SDS011;2273;48.464;11.926;2023-05-10T15:17:54;4.40;;;2.83;;
4521;SDS011;2273;48.464;11.926;2023-05-10T15:20:19;5.33;;;2.83;;
4521;SDS011;2273;48.464;11.926;2023-05-10T15:22:45;5.43;;;2.80;;
4521;SDS011;2273;48.464;11.926;2023-05-10T15:25:10;4.27;;;2.20;;
4521;SDS011;2273;48.464;11.926;2023-05-10T15:27:36;4.00;;;2.83;;
4521;SDS011;2273;48.464;11.926;2023-05-10T15:30:01;4.10;;;2.50;;
4521;SDS011;2273;48.464;11.926;2023-05-10T15:32:26;3.50;;;2.63;;
4521;SDS011;2273;48.464;11.926;2023-05-10T15:34:54;6.33;;;2.50;;